sensor_id;sensor_type;location;lat;lon;timestamp;pressure;altitude;pressure_sealevel;temperature;humidity
45937;BME280;31649;46.510;6.498;2023-03-20T06:52:53;95619.91;;;5.54;70.32
45937;BME280;31649;46.510;6.498;2023-03-20T06:55:30;95619.72;;;5.46;71.50
45937;BME280;31649;46.510;6.498;2023-03-20T06:58:06;95619.41;;;5.28;73.91
45937;BME280;31649;46.510;6.498;2023-03-20T07:00:50;95618.28;;;5.20;75.37
45937;BME280;31649;46.510;6.498;2023-03-20T07:03:30;95623.03;;;5.37;75.87
45937;BME280;31649;46.510;6.498;2023-03-20T07:06:00;95624.78;;;5.48;75.97
45937;BME280;31649;46.510;6.498;2023-03-20T07:08:30;95630.22;;;5.66;75.42
45937;BME280;31649;46.510;6.498;2023-03-20T07:11:00;95631.88;;;5.88;74.75
45937;BME280;31649;46.510;6.498;2023-03-20T07:13:29;95628.53;;;6.09;75.33
45937;BME280;31649;46.510;6.498;2023-03-20T07:16:06;95623.69;;;6.16;75.13
45937;BME280;31649;46.510;6.498;2023-03-20T07:18:49;95627.22;;;6.36;73.43
45937;BME280;31649;46.510;6.498;2023-03-20T07:21:28;95631.88;;;6.43;74.63
45937;BME280;31649;46.510;6.498;2023-03-20T07:24:06;95624.56;;;6.48;72.46
45937;BME280;31649;46.510;6.498;2023-03-20T07:26:36;95629.25;;;6.95;70.43
45937;BME280;31649;46.510;6.498;2023-03-20T07:29:13;95636.47;;;6.60;76.04
45937;BME280;31649;46.510;6.498;2023-03-20T07:31:55;95642.84;;;6.56;76.95
45937;BME280;31649;46.510;6.498;2023-03-20T07:34:26;95643.44;;;6.06;80.56
45937;BME280;31649;46.510;6.498;2023-03-20T07:36:52;95638.28;;;6.06;81.62
45937;BME280;31649;46.510;6.498;2023-03-20T07:39:18;95644.91;;;6.41;79.73
45937;BME280;31649;46.510;6.498;2023-03-20T07:41:57;95650.75;;;7.47;73.78
45937;BME280;31649;46.510;6.498;2023-03-20T07:44:30;95650.38;;;8.11;70.41
45937;BME280;31649;46.510;6.498;2023-03-20T07:46:56;95641.63;;;8.42;68.85
45937;BME280;31649;46.510;6.498;2023-03-20T07:49:22;95637.50;;;8.59;67.96
45937;BME280;31649;46.510;6.498;2023-03-20T07:51:49;95644.97;;;8.73;67.29
45937;BME280;31649;46.510;6.498;2023-03-20T07:54:15;95648.78;;;8.78;66.97
45937;BME280;31649;46.510;6.498;2023-03-20T07:56:42;95648.47;;;8.33;69.80
45937;BME280;31649;46.510;6.498;2023-03-20T07:59:08;95652.72;;;8.05;70.63
45937;BME280;31649;46.510;6.498;2023-03-20T08:01:34;95657.88;;;8.24;68.80
45937;BME280;31649;46.510;6.498;2023-03-20T08:04:00;95654.84;;;8.59;67.95
45937;BME280;31649;46.510;6.498;2023-03-20T08:06:26;95653.50;;;8.93;66.87
45937;BME280;31649;46.510;6.498;2023-03-20T08:08:54;95653.78;;;9.18;65.78
45937;BME280;31649;46.510;6.498;2023-03-20T08:11:22;95645.53;;;9.33;65.12
45937;BME280;31649;46.510;6.498;2023-03-20T08:13:50;95647.25;;;9.42;65.32
45937;BME280;31649;46.510;6.498;2023-03-20T08:16:20;95638.38;;;9.45;65.02
45937;BME280;31649;46.510;6.498;2023-03-20T08:18:56;95643.44;;;9.64;64.73
45937;BME280;31649;46.510;6.498;2023-03-20T08:21:31;95644.75;;;9.69;64.41
45937;BME280;31649;46.510;6.498;2023-03-20T08:24:00;95646.69;;;9.67;64.39
45937;BME280;31649;46.510;6.498;2023-03-20T08:26:29;95645.66;;;9.59;64.41
45937;BME280;31649;46.510;6.498;2023-03-20T08:28:55;95641.72;;;9.55;64.58
45937;BME280;31649;46.510;6.498;2023-03-20T08:31:21;95651.31;;;8.30;71.66
45937;BME280;31649;46.510;6.498;2023-03-20T08:33:47;95649.69;;;7.70;75.39
45937;BME280;31649;46.510;6.498;2023-03-20T08:36:14;95645.72;;;7.65;74.93
45937;BME280;31649;46.510;6.498;2023-03-20T08:38:41;95655.41;;;7.53;77.23
45937;BME280;31649;46.510;6.498;2023-03-20T08:41:07;95648.69;;;7.41;78.01
45937;BME280;31649;46.510;6.498;2023-03-20T08:43:34;95656.63;;;7.59;78.00
45937;BME280;31649;46.510;6.498;2023-03-20T08:46:08;95663.59;;;7.78;77.48
45937;BME280;31649;46.510;6.498;2023-03-20T08:48:44;95664.03;;;8.04;76.39
45937;BME280;31649;46.510;6.498;2023-03-20T08:51:14;95668.38;;;7.83;77.15
45937;BME280;31649;46.510;6.498;2023-03-20T08:53:40;95663.88;;;7.85;77.89
45937;BME280;31649;46.510;6.498;2023-03-20T08:56:06;95666.72;;;7.52;79.77
45937;BME280;31649;46.510;6.498;2023-03-20T08:58:32;95663.41;;;7.40;80.84
45937;BME280;31649;46.510;6.498;2023-03-20T09:01:08;95651.56;;;7.38;81.80
45937;BME280;31649;46.510;6.498;2023-03-20T09:03:35;95660.84;;;7.50;82.00
45937;BME280;31649;46.510;6.498;2023-03-20T09:06:04;95658.81;;;7.74;80.98
45937;BME280;31649;46.510;6.498;2023-03-20T09:08:32;95665.91;;;7.72;80.99
45937;BME280;31649;46.510;6.498;2023-03-20T09:10:58;95664.72;;;7.86;80.00
45937;BME280;31649;46.510;6.498;2023-03-20T09:13:24;95674.50;;;7.82;80.49
45937;BME280;31649;46.510;6.498;2023-03-20T09:15:51;95668.94;;;7.87;80.44
45937;BME280;31649;46.510;6.498;2023-03-20T09:18:18;95668.09;;;7.86;79.82
45937;BME280;31649;46.510;6.498;2023-03-20T09:20:45;95666.22;;;7.98;80.53
45937;BME280;31649;46.510;6.498;2023-03-20T09:23:11;95661.16;;;7.97;80.22
45937;BME280;31649;46.510;6.498;2023-03-20T09:25:37;95659.94;;;8.01;80.33
45937;BME280;31649;46.510;6.498;2023-03-20T09:28:03;95665.00;;;8.03;79.73
45937;BME280;31649;46.510;6.498;2023-03-20T09:30:30;95664.69;;;8.06;80.63
45937;BME280;31649;46.510;6.498;2023-03-20T09:32:56;95662.78;;;8.08;80.59
45937;BME280;31649;46.510;6.498;2023-03-20T09:35:21;95669.59;;;8.29;79.97
45937;BME280;31649;46.510;6.498;2023-03-20T09:37:47;95657.47;;;8.29;79.51
45937;BME280;31649;46.510;6.498;2023-03-20T09:40:29;95665.50;;;8.26;79.62
45937;BME280;31649;46.510;6.498;2023-03-20T09:43:18;95663.03;;;8.34;79.55
45937;BME280;31649;46.510;6.498;2023-03-20T09:49:06;95657.69;;;8.56;79.06
45937;BME280;31649;46.510;6.498;2023-03-20T09:51:59;95656.31;;;8.72;77.90
45937;BME280;31649;46.510;6.498;2023-03-20T09:54:36;95663.81;;;8.75;78.13
45937;BME280;31649;46.510;6.498;2023-03-20T09:57:05;95651.78;;;8.84;78.43
45937;BME280;31649;46.510;6.498;2023-03-20T09:59:33;95651.72;;;8.93;76.67
45937;BME280;31649;46.510;6.498;2023-03-20T10:02:34;95647.03;;;9.07;75.87
45937;BME280;31649;46.510;6.498;2023-03-20T10:05:02;95654.69;;;9.09;75.43
45937;BME280;31649;46.510;6.498;2023-03-20T10:07:32;95645.59;;;9.23;75.04
45937;BME280;31649;46.510;6.498;2023-03-20T10:09:57;95645.41;;;9.34;75.33
45937;BME280;31649;46.510;6.498;2023-03-20T10:12:34;95640.50;;;9.49;74.55
45937;BME280;31649;46.510;6.498;2023-03-20T10:15:29;95640.41;;;9.69;73.34
45937;BME280;31649;46.510;6.498;2023-03-20T10:18:26;95637.28;;;9.84;72.98
45937;BME280;31649;46.510;6.498;2023-03-20T10:21:03;95632.72;;;10.04;71.38
45937;BME280;31649;46.510;6.498;2023-03-20T10:23:42;95629.31;;;10.22;71.16
45937;BME280;31649;46.510;6.498;2023-03-20T10:26:16;95626.06;;;10.47;69.83
45937;BME280;31649;46.510;6.498;2023-03-20T10:31:21;95620.91;;;10.82;68.47
45937;BME280;31649;46.510;6.498;2023-03-20T10:34:14;95626.16;;;10.90;67.67
45937;BME280;31649;46.510;6.498;2023-03-20T10:42:48;95614.22;;;11.14;69.27
45937;BME280;31649;46.510;6.498;2023-03-20T10:45:30;95609.53;;;11.26;69.28
45937;BME280;31649;46.510;6.498;2023-03-20T10:48:01;95610.81;;;11.22;68.88
45937;BME280;31649;46.510;6.498;2023-03-20T10:50:39;95609.03;;;11.22;68.31
45937;BME280;31649;46.510;6.498;2023-03-20T10:53:09;95605.03;;;11.53;68.10
45937;BME280;31649;46.510;6.498;2023-03-20T10:55:42;95599.47;;;11.40;65.63
45937;BME280;31649;46.510;6.498;2023-03-20T10:58:16;95602.41;;;11.45;66.36
45937;BME280;31649;46.510;6.498;2023-03-20T11:00:43;95601.81;;;11.84;65.82
45937;BME280;31649;46.510;6.498;2023-03-20T11:03:19;95594.28;;;11.56;65.17
45937;BME280;31649;46.510;6.498;2023-03-20T11:05:56;95599.69;;;11.71;66.04
45937;BME280;31649;46.510;6.498;2023-03-20T11:08:25;95590.06;;;11.47;66.27
45937;BME280;31649;46.510;6.498;2023-03-20T11:11:00;95587.00;;;11.68;66.64
45937;BME280;31649;46.510;6.498;2023-03-20T11:13:31;95586.19;;;11.76;66.57
45937;BME280;31649;46.510;6.498;2023-03-20T11:16:08;95584.03;;;11.55;66.08
45937;BME280;31649;46.510;6.498;2023-03-20T11:18:39;95581.44;;;11.63;66.29
45937;BME280;31649;46.510;6.498;2023-03-20T11:21:24;95582.06;;;11.48;66.33
45937;BME280;31649;46.510;6.498;2023-03-20T11:23:56;95579.31;;;11.58;65.82
45937;BME280;31649;46.510;6.498;2023-03-20T11:26:35;95579.63;;;11.47;65.78
45937;BME280;31649;46.510;6.498;2023-03-20T11:29:05;95578.78;;;11.38;64.38
45937;BME280;31649;46.510;6.498;2023-03-20T11:31:39;95571.34;;;11.60;64.94
45937;BME280;31649;46.510;6.498;2023-03-20T11:37:26;95569.41;;;11.70;63.98
45937;BME280;31649;46.510;6.498;2023-03-20T11:39:36;95566.81;;;11.95;62.78
45937;BME280;31649;46.510;6.498;2023-03-20T11:42:21;95566.94;;;12.11;61.90
45937;BME280;31649;46.510;6.498;2023-03-20T11:44:56;95565.16;;;12.19;60.46
45937;BME280;31649;46.510;6.498;2023-03-20T11:47:25;95564.69;;;12.16;60.10
45937;BME280;31649;46.510;6.498;2023-03-20T11:49:58;95551.25;;;12.44;59.06
45937;BME280;31649;46.510;6.498;2023-03-20T11:52:43;95544.72;;;12.48;58.84
45937;BME280;31649;46.510;6.498;2023-03-20T11:55:28;95547.91;;;12.67;57.99
45937;BME280;31649;46.510;6.498;2023-03-20T11:58:00;95536.50;;;12.68;58.62
45937;BME280;31649;46.510;6.498;2023-03-20T12:00:41;95539.94;;;12.69;58.29
45937;BME280;31649;46.510;6.498;2023-03-20T12:03:42;95536.66;;;12.75;59.50
45937;BME280;31649;46.510;6.498;2023-03-20T12:06:26;95538.09;;;12.77;57.53
45937;BME280;31649;46.510;6.498;2023-03-20T12:08:56;95528.88;;;12.67;57.59
45937;BME280;31649;46.510;6.498;2023-03-20T12:11:42;95531.59;;;12.73;57.41
45937;BME280;31649;46.510;6.498;2023-03-20T12:14:20;95533.47;;;12.88;57.36
45937;BME280;31649;46.510;6.498;2023-03-20T12:16:51;95532.78;;;12.94;57.56
45937;BME280;31649;46.510;6.498;2023-03-20T12:19:25;95527.75;;;12.93;57.25
45937;BME280;31649;46.510;6.498;2023-03-20T12:22:11;95537.88;;;13.19;55.41
45937;BME280;31649;46.510;6.498;2023-03-20T12:24:51;95539.28;;;12.75;55.66
45937;BME280;31649;46.510;6.498;2023-03-20T12:27:36;95538.34;;;12.59;56.25
45937;BME280;31649;46.510;6.498;2023-03-20T12:30:12;95534.91;;;12.59;55.97
45937;BME280;31649;46.510;6.498;2023-03-20T12:33:09;95532.06;;;12.37;56.83
45937;BME280;31649;46.510;6.498;2023-03-20T12:35:48;95530.75;;;12.33;57.23
45937;BME280;31649;46.510;6.498;2023-03-20T12:38:31;95536.50;;;12.11;58.27
45937;BME280;31649;46.510;6.498;2023-03-20T12:41:10;95539.75;;;12.22;57.71
45937;BME280;31649;46.510;6.498;2023-03-20T12:43:51;95545.94;;;12.04;57.90
45937;BME280;31649;46.510;6.498;2023-03-20T12:57:38;95543.34;;;11.70;58.69
45937;BME280;31649;46.510;6.498;2023-03-20T13:14:04;95527.84;;;11.77;60.81
45937;BME280;31649;46.510;6.498;2023-03-20T13:19:26;95528.19;;;11.74;60.36
45937;BME280;31649;46.510;6.498;2023-03-20T13:21:59;95528.50;;;11.79;59.82
45937;BME280;31649;46.510;6.498;2023-03-20T13:24:48;95519.91;;;11.62;60.25
45937;BME280;31649;46.510;6.498;2023-03-20T13:27:35;95530.81;;;11.57;60.37
45937;BME280;31649;46.510;6.498;2023-03-20T13:35:38;95514.03;;;11.52;58.81
45937;BME280;31649;46.510;6.498;2023-03-20T13:38:16;95518.59;;;11.58;57.72
45937;BME280;31649;46.510;6.498;2023-03-20T13:40:45;95506.03;;;11.78;57.61
45937;BME280;31649;46.510;6.498;2023-03-20T13:46:18;95508.63;;;12.03;57.20
45937;BME280;31649;46.510;6.498;2023-03-20T13:48:44;95512.53;;;11.99;57.50
45937;BME280;31649;46.510;6.498;2023-03-20T13:54:06;95508.94;;;11.92;57.39
45937;BME280;31649;46.510;6.498;2023-03-20T13:59:23;95505.06;;;11.54;58.89
